sensor_id;sensor_type;location;lat;lon;timestamp;pressure;altitude;pressure_sealevel;temperature;humidity
68889;BME280;55930;47.412;8.790;2023-02-01T00:02:04;95424.41;;;1.31;100.00
68889;BME280;55930;47.412;8.790;2023-02-01T00:05:24;95417.69;;;1.30;100.00
68889;BME280;55930;47.412;8.790;2023-02-01T00:08:47;95408.75;;;1.27;100.00
68889;BME280;55930;47.412;8.790;2023-02-01T00:12:07;95403.53;;;1.17;100.00
68889;BME280;55930;47.412;8.790;2023-02-01T00:15:28;95394.19;;;1.12;100.00
68889;BME280;55930;47.412;8.790;2023-02-01T00:18:50;95398.69;;;1.15;100.00
68889;BME280;55930;47.412;8.790;2023-02-01T00:22:11;95392.31;;;1.12;100.00
68889;BME280;55930;47.412;8.790;2023-02-01T00:25:31;95394.59;;;1.03;100.00
68889;BME280;55930;47.412;8.790;2023-02-01T00:28:52;95392.38;;;1.02;100.00
68889;BME280;55930;47.412;8.790;2023-02-01T00:32:13;95389.75;;;0.95;100.00
68889;BME280;55930;47.412;8.790;2023-02-01T00:35:34;95390.13;;;0.90;100.00
68889;BME280;55930;47.412;8.790;2023-02-01T00:38:57;95383.78;;;0.84;100.00
68889;BME280;55930;47.412;8.790;2023-02-01T00:42:18;95387.91;;;0.77;100.00
68889;BME280;55930;47.412;8.790;2023-02-01T00:45:38;95380.06;;;0.67;100.00
68889;BME280;55930;47.412;8.790;2023-02-01T00:48:58;95374.47;;;0.65;100.00
68889;BME280;55930;47.412;8.790;2023-02-01T00:52:19;95379.34;;;0.45;100.00
68889;BME280;55930;47.412;8.790;2023-02-01T00:55:45;95369.25;;;0.36;100.00
68889;BME280;55930;47.412;8.790;2023-02-01T00:59:05;95365.91;;;0.40;100.00
68889;BME280;55930;47.412;8.790;2023-02-01T01:02:26;95364.03;;;0.44;100.00
68889;BME280;55930;47.412;8.790;2023-02-01T01:05:48;95362.16;;;0.41;100.00
68889;BME280;55930;47.412;8.790;2023-02-01T01:09:11;95364.03;;;0.44;100.00
68889;BME280;55930;47.412;8.790;2023-02-01T01:12:32;95361.81;;;0.38;100.00
68889;BME280;55930;47.412;8.790;2023-02-01T01:15:52;95354.34;;;0.41;100.00
68889;BME280;55930;47.412;8.790;2023-02-01T01:19:13;95360.69;;;0.29;100.00
68889;BME280;55930;47.412;8.790;2023-02-01T01:22:33;95356.94;;;0.33;100.00
68889;BME280;55930;47.412;8.790;2023-02-01T01:25:53;95360.69;;;0.47;100.00
68889;BME280;55930;47.412;8.790;2023-02-01T01:29:14;95349.50;;;0.43;100.00
68889;BME280;55930;47.412;8.790;2023-02-01T01:32:34;95349.88;;;0.27;100.00
68889;BME280;55930;47.412;8.790;2023-02-01T01:35:55;95358.81;;;0.19;100.00
68889;BME280;55930;47.412;8.790;2023-02-01T01:39:15;95354.75;;;0.32;100.00
68889;BME280;55930;47.412;8.790;2023-02-01T01:42:40;95355.84;;;0.49;100.00
68889;BME280;55930;47.412;8.790;2023-02-01T01:46:01;95348.75;;;0.42;100.00
68889;BME280;55930;47.412;8.790;2023-02-01T01:49:25;95347.63;;;0.32;100.00
68889;BME280;55930;47.412;8.790;2023-02-01T01:52:49;95341.28;;;0.33;100.00
68889;BME280;55930;47.412;8.790;2023-02-01T01:56:11;95338.69;;;0.33;100.00
68889;BME280;55930;47.412;8.790;2023-02-01T01:59:34;95332.34;;;0.42;100.00
68889;BME280;55930;47.412;8.790;2023-02-01T02:03:07;95332.38;;;0.56;100.00
68889;BME280;55930;47.412;8.790;2023-02-01T02:10:31;95329.38;;;0.40;100.00
68889;BME280;55930;47.412;8.790;2023-02-01T02:14:13;95338.69;;;0.37;100.00
68889;BME280;55930;47.412;8.790;2023-02-01T02:17:44;95346.50;;;0.58;100.00
68889;BME280;55930;47.412;8.790;2023-02-01T02:21:16;95350.63;;;0.38;100.00
68889;BME280;55930;47.412;8.790;2023-02-01T02:24:49;95342.06;;;0.37;100.00
68889;BME280;55930;47.412;8.790;2023-02-01T02:32:28;95342.81;;;0.56;100.00
68889;BME280;55930;47.412;8.790;2023-02-01T02:36:01;95345.03;;;0.50;100.00
68889;BME280;55930;47.412;8.790;2023-02-01T02:43:01;95351.34;;;0.49;100.00
68889;BME280;55930;47.412;8.790;2023-02-01T02:46:48;95344.28;;;0.50;100.00
68889;BME280;55930;47.412;8.790;2023-02-01T02:50:33;95341.31;;;0.44;100.00
68889;BME280;55930;47.412;8.790;2023-02-01T02:54:17;95336.06;;;0.51;100.00
68889;BME280;55930;47.412;8.790;2023-02-01T02:57:59;95333.84;;;0.39;100.00
68889;BME280;55930;47.412;8.790;2023-02-01T03:01:39;95339.06;;;0.35;100.00
68889;BME280;55930;47.412;8.790;2023-02-01T03:05:21;95347.25;;;0.20;100.00
68889;BME280;55930;47.412;8.790;2023-02-01T03:08:42;95345.78;;;0.36;100.00
68889;BME280;55930;47.412;8.790;2023-02-01T03:12:11;95339.06;;;0.28;100.00
68889;BME280;55930;47.412;8.790;2023-02-01T03:19:37;95337.19;;;0.36;100.00
68889;BME280;55930;47.412;8.790;2023-02-01T03:22:59;95337.56;;;0.42;100.00
68889;BME280;55930;47.412;8.790;2023-02-01T03:26:21;95340.53;;;0.40;100.00
68889;BME280;55930;47.412;8.790;2023-02-01T03:30:09;95334.22;;;0.34;100.00
68889;BME280;55930;47.412;8.790;2023-02-01T03:33:31;95344.28;;;0.25;100.00
68889;BME280;55930;47.412;8.790;2023-02-01T03:37:03;95357.69;;;0.16;100.00
68889;BME280;55930;47.412;8.790;2023-02-01T03:40:25;95353.25;;;0.31;100.00
68889;BME280;55930;47.412;8.790;2023-02-01T03:47:24;95346.91;;;0.35;100.00
68889;BME280;55930;47.412;8.790;2023-02-01T03:50:49;95346.53;;;0.44;100.00
68889;BME280;55930;47.412;8.790;2023-02-01T03:54:13;95336.84;;;0.45;100.00
68889;BME280;55930;47.412;8.790;2023-02-01T03:57:39;95324.16;;;0.47;100.00
68889;BME280;55930;47.412;8.790;2023-02-01T04:01:01;95319.69;;;0.36;100.00
68889;BME280;55930;47.412;8.790;2023-02-01T04:04:22;95323.78;;;0.34;100.00
68889;BME280;55930;47.412;8.790;2023-02-01T04:07:42;95311.84;;;0.36;100.00
68889;BME280;55930;47.412;8.790;2023-02-01T04:11:02;95316.72;;;0.38;100.00
68889;BME280;55930;47.412;8.790;2023-02-01T04:14:23;95323.03;;;0.44;100.00
68889;BME280;55930;47.412;8.790;2023-02-01T04:17:44;95348.75;;;0.53;100.00
68889;BME280;55930;47.412;8.790;2023-02-01T04:21:04;95347.25;;;0.59;100.00
68889;BME280;55930;47.412;8.790;2023-02-01T04:24:25;95337.59;;;0.56;100.00
68889;BME280;55930;47.412;8.790;2023-02-01T04:27:48;95353.97;;;0.60;100.00
68889;BME280;55930;47.412;8.790;2023-02-01T04:31:08;95343.91;;;0.58;100.00
68889;BME280;55930;47.412;8.790;2023-02-01T04:34:29;95345.78;;;0.61;100.00
68889;BME280;55930;47.412;8.790;2023-02-01T04:37:49;95357.34;;;0.64;100.00
68889;BME280;55930;47.412;8.790;2023-02-01T04:41:09;95360.31;;;0.66;100.00
68889;BME280;55930;47.412;8.790;2023-02-01T04:44:30;95362.19;;;0.69;100.00
68889;BME280;55930;47.412;8.790;2023-02-01T04:47:50;95367.38;;;0.76;100.00
68889;BME280;55930;47.412;8.790;2023-02-01T04:51:11;95391.28;;;0.78;100.00
68889;BME280;55930;47.412;8.790;2023-02-01T04:54:31;95388.28;;;0.80;100.00
68889;BME280;55930;47.412;8.790;2023-02-01T04:57:51;95390.16;;;0.79;100.00
68889;BME280;55930;47.412;8.790;2023-02-01T05:01:14;95403.56;;;0.81;100.00
68889;BME280;55930;47.412;8.790;2023-02-01T05:04:35;95399.44;;;0.80;100.00
68889;BME280;55930;47.412;8.790;2023-02-01T05:07:55;95408.41;;;0.83;100.00
68889;BME280;55930;47.412;8.790;2023-02-01T05:11:16;95408.03;;;0.84;100.00
68889;BME280;55930;47.412;8.790;2023-02-01T05:14:54;95398.72;;;0.87;100.00
68889;BME280;55930;47.412;8.790;2023-02-01T05:18:15;95405.81;;;0.86;100.00
68889;BME280;55930;47.412;8.790;2023-02-01T05:21:35;95399.09;;;0.85;100.00
68889;BME280;55930;47.412;8.790;2023-02-01T05:24:56;95398.34;;;0.81;100.00
68889;BME280;55930;47.412;8.790;2023-02-01T05:28:16;95397.25;;;0.79;100.00
68889;BME280;55930;47.412;8.790;2023-02-01T05:31:37;95382.31;;;0.83;100.00
68889;BME280;55930;47.412;8.790;2023-02-01T05:34:57;95380.44;;;0.76;100.00
68889;BME280;55930;47.412;8.790;2023-02-01T05:38:18;95362.91;;;0.76;100.00
68889;BME280;55930;47.412;8.790;2023-02-01T05:41:38;95367.00;;;0.74;100.00
68889;BME280;55930;47.412;8.790;2023-02-01T05:44:59;95364.03;;;0.83;100.00
68889;BME280;55930;47.412;8.790;2023-02-01T05:48:22;95364.78;;;0.83;100.00
68889;BME280;55930;47.412;8.790;2023-02-01T05:51:44;95370.38;;;0.85;100.00
68889;BME280;55930;47.412;8.790;2023-02-01T05:55:05;95373.34;;;0.91;100.00
68889;BME280;55930;47.412;8.790;2023-02-01T05:58:28;95396.47;;;0.92;100.00
68889;BME280;55930;47.412;8.790;2023-02-01T06:01:54;95390.88;;;0.94;100.00
68889;BME280;55930;47.412;8.790;2023-02-01T06:05:14;95390.84;;;0.97;100.00
68889;BME280;55930;47.412;8.790;2023-02-01T06:08:37;95402.81;;;1.02;100.00
68889;BME280;55930;47.412;8.790;2023-02-01T06:12:00;95397.94;;;1.04;100.00
68889;BME280;55930;47.412;8.790;2023-02-01T06:15:21;95409.50;;;1.06;100.00
68889;BME280;55930;47.412;8.790;2023-02-01T06:18:41;95401.31;;;1.08;100.00
68889;BME280;55930;47.412;8.790;2023-02-01T06:22:02;95397.94;;;1.07;100.00
68889;BME280;55930;47.412;8.790;2023-02-01T06:25:23;95400.91;;;1.13;100.00
68889;BME280;55930;47.412;8.790;2023-02-01T06:28:47;95405.03;;;1.10;100.00
68889;BME280;55930;47.412;8.790;2023-02-01T06:32:10;95402.41;;;1.14;100.00
68889;BME280;55930;47.412;8.790;2023-02-01T06:35:30;95400.91;;;1.17;100.00
68889;BME280;55930;47.412;8.790;2023-02-01T06:38:51;95400.91;;;1.13;100.00
68889;BME280;55930;47.412;8.790;2023-02-01T06:42:12;95408.75;;;1.17;100.00
68889;BME280;55930;47.412;8.790;2023-02-01T06:45:34;95424.06;;;1.18;100.00
68889;BME280;55930;47.412;8.790;2023-02-01T06:48:55;95414.72;;;1.17;100.00
68889;BME280;55930;47.412;8.790;2023-02-01T06:52:16;95412.47;;;1.15;100.00
68889;BME280;55930;47.412;8.790;2023-02-01T06:55:36;95425.56;;;1.19;100.00
68889;BME280;55930;47.412;8.790;2023-02-01T06:58:57;95425.16;;;1.24;100.00
68889;BME280;55930;47.412;8.790;2023-02-01T07:02:17;95425.56;;;1.19;100.00
68889;BME280;55930;47.412;8.790;2023-02-01T07:05:37;95427.03;;;1.27;100.00
68889;BME280;55930;47.412;8.790;2023-02-01T07:08:58;95442.69;;;1.31;100.00
68889;BME280;55930;47.412;8.790;2023-02-01T07:12:20;95455.75;;;1.31;100.00
68889;BME280;55930;47.412;8.790;2023-02-01T07:15:43;95459.13;;;1.35;100.00
68889;BME280;55930;47.412;8.790;2023-02-01T07:19:04;95469.56;;;1.42;99.51
68889;BME280;55930;47.412;8.790;2023-02-01T07:22:25;95481.16;;;1.41;99.45
68889;BME280;55930;47.412;8.790;2023-02-01T07:25:46;95487.50;;;1.40;100.00
68889;BME280;55930;47.412;8.790;2023-02-01T07:29:06;95494.56;;;1.36;100.00
68889;BME280;55930;47.412;8.790;2023-02-01T07:32:28;95508.41;;;1.29;100.00
68889;BME280;55930;47.412;8.790;2023-02-01T07:35:49;95517.00;;;1.26;100.00
68889;BME280;55930;47.412;8.790;2023-02-01T07:39:10;95517.75;;;1.20;100.00
68889;BME280;55930;47.412;8.790;2023-02-01T07:42:30;95520.00;;;1.03;100.00
68889;BME280;55930;47.412;8.790;2023-02-01T07:45:54;95509.16;;;0.98;100.00
68889;BME280;55930;47.412;8.790;2023-02-01T07:49:15;95501.31;;;0.91;100.00
68889;BME280;55930;47.412;8.790;2023-02-01T07:52:37;95507.31;;;0.95;100.00
68889;BME280;55930;47.412;8.790;2023-02-01T07:56:00;95500.94;;;0.92;100.00
68889;BME280;55930;47.412;8.790;2023-02-01T07:59:21;95502.44;;;0.86;100.00
68889;BME280;55930;47.412;8.790;2023-02-01T08:02:44;95499.81;;;0.90;100.00
68889;BME280;55930;47.412;8.790;2023-02-01T08:06:05;95504.31;;;1.00;100.00
68889;BME280;55930;47.412;8.790;2023-02-01T08:09:26;95500.56;;;1.04;100.00
68889;BME280;55930;47.412;8.790;2023-02-01T08:12:46;95501.69;;;1.07;100.00
68889;BME280;55930;47.412;8.790;2023-02-01T08:16:09;95506.94;;;1.10;100.00
68889;BME280;55930;47.412;8.790;2023-02-01T08:19:30;95491.97;;;1.04;100.00
68889;BME280;55930;47.412;8.790;2023-02-01T08:22:53;95481.53;;;1.04;100.00
68889;BME280;55930;47.412;8.790;2023-02-01T08:26:20;95475.56;;;1.14;100.00
68889;BME280;55930;47.412;8.790;2023-02-01T08:29:41;95486.75;;;1.22;100.00
68889;BME280;55930;47.412;8.790;2023-02-01T08:33:01;95483.78;;;1.34;100.00
68889;BME280;55930;47.412;8.790;2023-02-01T08:36:23;95479.25;;;1.52;100.00
68889;BME280;55930;47.412;8.790;2023-02-01T08:39:44;95484.47;;;1.59;100.00
68889;BME280;55930;47.412;8.790;2023-02-01T08:43:05;95473.63;;;1.64;100.00
68889;BME280;55930;47.412;8.790;2023-02-01T08:46:25;95484.09;;;1.64;100.00
68889;BME280;55930;47.412;8.790;2023-02-01T08:49:46;95483.34;;;1.60;100.00
68889;BME280;55930;47.412;8.790;2023-02-01T08:53:06;95483.72;;;1.62;100.00
68889;BME280;55930;47.412;8.790;2023-02-01T08:56:29;95488.19;;;1.62;100.00
68889;BME280;55930;47.412;8.790;2023-02-01T08:59:49;95477.72;;;1.72;100.00
68889;BME280;55930;47.412;8.790;2023-02-01T09:03:12;95480.72;;;1.64;100.00
68889;BME280;55930;47.412;8.790;2023-02-01T09:06:32;95493.75;;;1.81;100.00
68889;BME280;55930;47.412;8.790;2023-02-01T09:09:53;95497.47;;;1.91;100.00
68889;BME280;55930;47.412;8.790;2023-02-01T09:13:14;95489.63;;;1.91;100.00
68889;BME280;55930;47.412;8.790;2023-02-01T09:16:37;95482.13;;;1.97;100.00
68889;BME280;55930;47.412;8.790;2023-02-01T09:19:58;95500.75;;;2.09;100.00
68889;BME280;55930;47.412;8.790;2023-02-01T09:23:18;95496.28;;;2.03;100.00
68889;BME280;55930;47.412;8.790;2023-02-01T09:26:40;95495.91;;;2.04;100.00
68889;BME280;55930;47.412;8.790;2023-02-01T09:30:01;95498.16;;;2.06;100.00
68889;BME280;55930;47.412;8.790;2023-02-01T09:33:22;95495.47;;;2.20;100.00
68889;BME280;55930;47.412;8.790;2023-02-01T09:36:43;95504.75;;;2.35;100.00
68889;BME280;55930;47.412;8.790;2023-02-01T09:40:04;95502.84;;;2.46;100.00
68889;BME280;55930;47.412;8.790;2023-02-01T09:46:48;95512.44;;;2.67;100.00
68889;BME280;55930;47.412;8.790;2023-02-01T09:50:14;95529.25;;;2.73;100.00
68889;BME280;55930;47.412;8.790;2023-02-01T09:53:42;95530.81;;;2.60;100.00
68889;BME280;55930;47.412;8.790;2023-02-01T09:57:21;95538.25;;;2.68;100.00
68889;BME280;55930;47.412;8.790;2023-02-01T10:00:55;95526.56;;;2.80;100.00
68889;BME280;55930;47.412;8.790;2023-02-01T10:04:17;95517.63;;;2.74;100.00
68889;BME280;55930;47.412;8.790;2023-02-01T10:07:43;95515.63;;;2.96;99.96
68889;BME280;55930;47.412;8.790;2023-02-01T10:26:25;95475.94;;;3.42;96.92
68889;BME280;55930;47.412;8.790;2023-02-01T10:29:51;95467.22;;;3.52;95.89
68889;BME280;55930;47.412;8.790;2023-02-01T10:33:22;95473.22;;;3.90;93.31
68889;BME280;55930;47.412;8.790;2023-02-01T10:36:54;95464.72;;;4.67;91.36
68889;BME280;55930;47.412;8.790;2023-02-01T10:40:19;95466.75;;;4.55;90.06
68889;BME280;55930;47.412;8.790;2023-02-01T10:43:43;95465.50;;;4.63;89.26
68889;BME280;55930;47.412;8.790;2023-02-01T10:47:05;95464.81;;;4.33;89.72
68889;BME280;55930;47.412;8.790;2023-02-01T10:50:35;95444.97;;;4.82;87.96
68889;BME280;55930;47.412;8.790;2023-02-01T10:54:17;95442.34;;;5.28;86.06
68889;BME280;55930;47.412;8.790;2023-02-01T10:57:37;95440.31;;;5.16;84.71
68889;BME280;55930;47.412;8.790;2023-02-01T11:01:04;95455.31;;;6.22;83.11
68889;BME280;55930;47.412;8.790;2023-02-01T11:04:35;95442.00;;;5.50;84.12
68889;BME280;55930;47.412;8.790;2023-02-01T11:07:58;95437.69;;;5.99;80.12
68889;BME280;55930;47.412;8.790;2023-02-01T11:11:21;95441.50;;;6.34;79.92
68889;BME280;55930;47.412;8.790;2023-02-01T11:15:22;95442.00;;;6.09;79.48
68889;BME280;55930;47.412;8.790;2023-02-01T11:18:41;95440.28;;;5.59;81.05
68889;BME280;55930;47.412;8.790;2023-02-01T11:22:12;95426.53;;;5.09;83.37
68889;BME280;55930;47.412;8.790;2023-02-01T11:25:35;95424.06;;;6.40;78.33
68889;BME280;55930;47.412;8.790;2023-02-01T11:29:00;95422.31;;;8.68;70.95
68889;BME280;55930;47.412;8.790;2023-02-01T11:32:31;95403.97;;;13.95;51.24
68889;BME280;55930;47.412;8.790;2023-02-01T11:35:51;95418.47;;;17.03;40.76
68889;BME280;55930;47.412;8.790;2023-02-01T11:42:32;95410.66;;;6.99;68.59
68889;BME280;55930;47.412;8.790;2023-02-01T11:46:01;95408.69;;;9.94;59.73
68889;BME280;55930;47.412;8.790;2023-02-01T11:49:24;95412.59;;;7.27;66.69
68889;BME280;55930;47.412;8.790;2023-02-01T12:00:12;95397.78;;;6.36;72.17
68889;BME280;55930;47.412;8.790;2023-02-01T12:12:02;95385.28;;;6.73;69.13
68889;BME280;55930;47.412;8.790;2023-02-01T12:15:13;95388.16;;;10.08;59.96
68889;BME280;55930;47.412;8.790;2023-02-01T12:33:46;95311.03;;;13.11;48.75
68889;BME280;55930;47.412;8.790;2023-02-01T12:44:35;95335.16;;;16.64;37.83
68889;BME280;55930;47.412;8.790;2023-02-01T12:48:03;95334.09;;;14.96;40.51
68889;BME280;55930;47.412;8.790;2023-02-01T12:51:34;95339.19;;;10.61;51.83
68889;BME280;55930;47.412;8.790;2023-02-01T12:58:49;95336.59;;;12.13;49.59
68889;BME280;55930;47.412;8.790;2023-02-01T13:05:48;95344.78;;;8.07;59.42
68889;BME280;55930;47.412;8.790;2023-02-01T13:09:59;95332.84;;;10.19;54.18
68889;BME280;55930;47.412;8.790;2023-02-01T13:13:20;95311.06;;;13.93;47.85
68889;BME280;55930;47.412;8.790;2023-02-01T13:16:45;95327.63;;;12.01;50.10
68889;BME280;55930;47.412;8.790;2023-02-01T13:24:00;95311.03;;;8.62;57.16
68889;BME280;55930;47.412;8.790;2023-02-01T13:27:28;95310.53;;;8.17;58.38
68889;BME280;55930;47.412;8.790;2023-02-01T13:39:24;95305.81;;;8.84;57.93
68889;BME280;55930;47.412;8.790;2023-02-01T13:42:55;95297.38;;;9.42;55.67
68889;BME280;55930;47.412;8.790;2023-02-01T13:46:16;95299.97;;;10.16;54.16
68889;BME280;55930;47.412;8.790;2023-02-01T13:49:38;95292.91;;;9.08;55.29
68889;BME280;55930;47.412;8.790;2023-02-01T13:53:03;95301.31;;;7.58;61.43
68889;BME280;55930;47.412;8.790;2023-02-01T13:56:26;95283.66;;;7.67;61.33
68889;BME280;55930;47.412;8.790;2023-02-01T13:59:51;95295.09;;;7.64;61.24
68889;BME280;55930;47.412;8.790;2023-02-01T14:03:14;95302.50;;;8.93;58.81
68889;BME280;55930;47.412;8.790;2023-02-01T14:06:53;95306.53;;;7.04;62.96
68889;BME280;55930;47.412;8.790;2023-02-01T14:10:48;95314.44;;;6.75;66.39
68889;BME280;55930;47.412;8.790;2023-02-01T14:17:41;95323.28;;;6.52;66.56
68889;BME280;55930;47.412;8.790;2023-02-01T14:21:24;95329.97;;;7.02;64.79
68889;BME280;55930;47.412;8.790;2023-02-01T14:24:54;95338.31;;;6.19;66.80
68889;BME280;55930;47.412;8.790;2023-02-01T14:28:25;95349.44;;;6.27;68.34
68889;BME280;55930;47.412;8.790;2023-02-01T14:31:59;95351.34;;;6.42;68.91
68889;BME280;55930;47.412;8.790;2023-02-01T14:35:26;95359.09;;;5.77;69.45
68889;BME280;55930;47.412;8.790;2023-02-01T14:38:49;95356.00;;;5.23;72.34
68889;BME280;55930;47.412;8.790;2023-02-01T14:42:38;95358.38;;;5.37;71.19
68889;BME280;55930;47.412;8.790;2023-02-01T14:45:59;95362.69;;;5.08;73.78
68889;BME280;55930;47.412;8.790;2023-02-01T14:49:20;95363.53;;;5.02;72.85
68889;BME280;55930;47.412;8.790;2023-02-01T14:56:18;95360.94;;;5.21;71.46
68889;BME280;55930;47.412;8.790;2023-02-01T14:59:42;95361.53;;;5.29;71.35
68889;BME280;55930;47.412;8.790;2023-02-01T15:06:43;95363.09;;;4.83;72.32
68889;BME280;55930;47.412;8.790;2023-02-01T15:10:05;95358.34;;;4.98;72.74
68889;BME280;55930;47.412;8.790;2023-02-01T15:13:27;95358.34;;;4.98;72.68
68889;BME280;55930;47.412;8.790;2023-02-01T15:16:47;95362.81;;;5.01;71.84
68889;BME280;55930;47.412;8.790;2023-02-01T15:20:19;95364.25;;;4.82;73.06
68889;BME280;55930;47.412;8.790;2023-02-01T15:23:41;95373.41;;;4.47;73.35
68889;BME280;55930;47.412;8.790;2023-02-01T15:27:04;95377.75;;;4.34;73.95
68889;BME280;55930;47.412;8.790;2023-02-01T15:30:27;95376.41;;;4.22;73.49
68889;BME280;55930;47.412;8.790;2023-02-01T15:33:57;95374.13;;;4.24;73.38
68889;BME280;55930;47.412;8.790;2023-02-01T15:37:20;95392.66;;;4.14;73.55
68889;BME280;55930;47.412;8.790;2023-02-01T15:44:45;95403.03;;;3.94;73.56
68889;BME280;55930;47.412;8.790;2023-02-01T15:48:18;95399.31;;;3.92;73.20
68889;BME280;55930;47.412;8.790;2023-02-01T15:51:46;95396.81;;;3.81;73.02
68889;BME280;55930;47.412;8.790;2023-02-01T15:55:21;95415.31;;;3.70;73.90
68889;BME280;55930;47.412;8.790;2023-02-01T15:58:46;95424.97;;;3.77;73.13
68889;BME280;55930;47.412;8.790;2023-02-01T16:02:28;95432.53;;;3.71;74.43
68889;BME280;55930;47.412;8.790;2023-02-01T16:05:58;95438.72;;;3.54;73.33
68889;BME280;55930;47.412;8.790;2023-02-01T16:09:20;95442.16;;;3.47;74.42
68889;BME280;55930;47.412;8.790;2023-02-01T16:16:02;95451.59;;;3.41;75.70
68889;BME280;55930;47.412;8.790;2023-02-01T16:19:27;95447.88;;;3.39;75.10
68889;BME280;55930;47.412;8.790;2023-02-01T16:22:48;95450.50;;;3.35;75.53
68889;BME280;55930;47.412;8.790;2023-02-01T16:26:16;95446.00;;;3.39;75.03
68889;BME280;55930;47.412;8.790;2023-02-01T16:29:36;95452.44;;;3.28;75.48
68889;BME280;55930;47.412;8.790;2023-02-01T16:32:58;95453.94;;;3.29;75.85
68889;BME280;55930;47.412;8.790;2023-02-01T16:36:23;95461.44;;;3.30;76.29
68889;BME280;55930;47.412;8.790;2023-02-01T16:39:46;95472.66;;;3.31;75.90
68889;BME280;55930;47.412;8.790;2023-02-01T16:43:15;95473.41;;;3.31;76.35
68889;BME280;55930;47.412;8.790;2023-02-01T16:46:40;95473.78;;;3.33;75.49
68889;BME280;55930;47.412;8.790;2023-02-01T16:50:03;95474.53;;;3.30;75.71
68889;BME280;55930;47.412;8.790;2023-02-01T16:53:26;95484.31;;;3.26;76.15
68889;BME280;55930;47.412;8.790;2023-02-01T16:56:47;95488.75;;;3.33;75.75
68889;BME280;55930;47.412;8.790;2023-02-01T17:00:09;95496.25;;;3.31;75.85
68889;BME280;55930;47.412;8.790;2023-02-01T17:03:35;95471.59;;;3.25;77.02
68889;BME280;55930;47.412;8.790;2023-02-01T17:06:56;95468.31;;;3.17;77.50
68889;BME280;55930;47.412;8.790;2023-02-01T17:10:26;95472.00;;;3.20;78.47
68889;BME280;55930;47.412;8.790;2023-02-01T17:13:47;95482.50;;;3.20;77.20
68889;BME280;55930;47.412;8.790;2023-02-01T17:17:09;95475.34;;;3.24;76.93
68889;BME280;55930;47.412;8.790;2023-02-01T17:20:30;95482.44;;;3.27;75.70
68889;BME280;55930;47.412;8.790;2023-02-01T17:23:52;95473.78;;;3.30;75.01
68889;BME280;55930;47.412;8.790;2023-02-01T17:27:13;95473.84;;;3.26;76.10
68889;BME280;55930;47.412;8.790;2023-02-01T17:30:34;95474.97;;;3.25;75.80
68889;BME280;55930;47.412;8.790;2023-02-01T17:33:54;95477.59;;;3.22;76.37
68889;BME280;55930;47.412;8.790;2023-02-01T17:37:22;95478.00;;;3.20;76.48
68889;BME280;55930;47.412;8.790;2023-02-01T17:40:44;95476.16;;;3.17;76.75
68889;BME280;55930;47.412;8.790;2023-02-01T17:44:04;95478.03;;;3.17;77.19
68889;BME280;55930;47.412;8.790;2023-02-01T17:47:25;95478.41;;;3.19;77.42
68889;BME280;55930;47.412;8.790;2023-02-01T17:50:46;95469.00;;;3.21;76.68
68889;BME280;55930;47.412;8.790;2023-02-01T17:54:12;95476.06;;;3.28;75.51
68889;BME280;55930;47.412;8.790;2023-02-01T17:57:35;95476.09;;;3.24;75.30
68889;BME280;55930;47.412;8.790;2023-02-01T18:00:56;95475.34;;;3.24;75.13
68889;BME280;55930;47.412;8.790;2023-02-01T18:04:18;95487.28;;;3.28;75.80
68889;BME280;55930;47.412;8.790;2023-02-01T18:07:41;95479.84;;;3.23;76.33
68889;BME280;55930;47.412;8.790;2023-02-01T18:11:01;95474.91;;;3.29;74.43
68889;BME280;55930;47.412;8.790;2023-02-01T18:14:21;95473.84;;;3.23;75.97
68889;BME280;55930;47.412;8.790;2023-02-01T18:17:43;95486.16;;;3.29;75.11
68889;BME280;55930;47.412;8.790;2023-02-01T18:21:03;95483.25;;;3.20;77.09
68889;BME280;55930;47.412;8.790;2023-02-01T18:24:24;95479.84;;;3.23;75.98
68889;BME280;55930;47.412;8.790;2023-02-01T18:27:47;95473.09;;;3.26;75.19
68889;BME280;55930;47.412;8.790;2023-02-01T18:34:40;95477.22;;;3.23;76.50
68889;BME280;55930;47.412;8.790;2023-02-01T18:38:00;95475.72;;;3.22;76.23
68889;BME280;55930;47.412;8.790;2023-02-01T18:41:21;95481.03;;;3.19;77.55
68889;BME280;55930;47.412;8.790;2023-02-01T18:44:42;95483.66;;;3.19;77.71
68889;BME280;55930;47.412;8.790;2023-02-01T18:48:04;95480.63;;;3.20;77.21
68889;BME280;55930;47.412;8.790;2023-02-01T18:51:27;95480.66;;;3.17;78.29
68889;BME280;55930;47.412;8.790;2023-02-01T18:54:47;95475.41;;;3.17;78.02
68889;BME280;55930;47.412;8.790;2023-02-01T18:58:11;95489.63;;;3.19;78.13
68889;BME280;55930;47.412;8.790;2023-02-01T19:01:32;95491.44;;;3.26;77.84
68889;BME280;55930;47.412;8.790;2023-02-01T19:04:52;95488.84;;;3.22;77.75
68889;BME280;55930;47.412;8.790;2023-02-01T19:08:13;95489.63;;;3.19;78.62
68889;BME280;55930;47.412;8.790;2023-02-01T19:11:33;95496.78;;;3.15;79.45
68889;BME280;55930;47.412;8.790;2023-02-01T19:14:56;95497.91;;;3.14;79.41
68889;BME280;55930;47.412;8.790;2023-02-01T19:18:16;95493.03;;;3.16;79.16
68889;BME280;55930;47.412;8.790;2023-02-01T19:21:39;95501.31;;;3.11;79.54
68889;BME280;55930;47.412;8.790;2023-02-01T19:24:59;95504.66;;;3.12;79.99
68889;BME280;55930;47.412;8.790;2023-02-01T19:28:20;95505.81;;;3.11;79.92
68889;BME280;55930;47.412;8.790;2023-02-01T19:31:40;95506.19;;;3.09;79.99
68889;BME280;55930;47.412;8.790;2023-02-01T19:35:04;95518.91;;;3.07;80.27
68889;BME280;55930;47.412;8.790;2023-02-01T19:38:24;95514.00;;;3.13;79.55
68889;BME280;55930;47.412;8.790;2023-02-01T19:41:45;95517.03;;;3.11;79.44
68889;BME280;55930;47.412;8.790;2023-02-01T19:45:06;95524.53;;;3.09;79.53
68889;BME280;55930;47.412;8.790;2023-02-01T19:48:27;95538.00;;;3.11;80.23
68889;BME280;55930;47.412;8.790;2023-02-01T19:51:48;95536.16;;;3.04;80.28
68889;BME280;55930;47.412;8.790;2023-02-01T19:55:09;95545.13;;;3.07;79.92
68889;BME280;55930;47.412;8.790;2023-02-01T19:58:29;95541.81;;;3.03;81.41
68889;BME280;55930;47.412;8.790;2023-02-01T20:01:50;95530.22;;;3.00;81.28
68889;BME280;55930;47.412;8.790;2023-02-01T20:05:11;95532.78;;;3.04;80.66
68889;BME280;55930;47.412;8.790;2023-02-01T20:08:32;95526.47;;;2.98;80.72